Skip Navigation LinksHome page > Weather > Current weather Skip Navigation Links

Current Weather

Indira Gandhi Intl Apt, New Delhi, India

For information only: do not use for flight planning or navigation.
Latest weather
Observation time Friday, August 1, 2014 12:30 PM IST
Local time Friday, August 1, 2014 1:15 PM IST
Flight conditions Instrument Meteorological Conditions
Winds
Wind direction South-Southeast (160°)
Wind speed 7 mph
Visibility 2.2 mi.
Present weather haze
Sky condition
Ceiling 10,000 ft. broken clouds
Cloud layer scattered clouds 4,000 ft.
Cloud layer broken clouds 10,000 ft.
Temperature 93°F
Dewpoint 77°F
Altimeter 29.59 in.Hg
Derived measurements
Relative humidity 60%
Heat index 108°F
Density altitude 2961 ft.
Remarks
No significant changes expected in the next two hours.
METAR VIDP 010700Z 16006KT 3500 HZ SCT040 FEW040CB BKN100 34/25 Q1002 NOSIG

Settings

Location code

InnerDrive.Weather 4.0.5294.0 Release CLR 4.0.30319.34014
Copyright ©2014 Inner Drive Technology. All rights reserved. Portions Copyright ©1986-2014 David Braverman.

Find weather

Site navigation


Skip Navigation Links

Place info

Page info

PayPal - The safer, easier way to pay online!

Return home.

Copyright ©2014 Inner Drive Technology. Purveyors of fine, hand-crafted computer software. Page printed 2014-08-01T07:45:46 UTC.